createdAt,value
2022-09-06T04:00:19.985Z,101344.19
2022-09-06T04:02:48.953Z,101344.55
2022-09-06T04:05:18.768Z,101342.38
2022-09-06T04:07:47.000Z,101338.02
2022-09-06T04:10:15.317Z,101343.42
2022-09-06T04:12:45.829Z,101336.45
2022-09-06T04:15:15.004Z,101337.38
2022-09-06T04:17:48.099Z,101331.64
2022-09-06T04:20:17.670Z,101332.85
2022-09-06T04:22:46.608Z,101329.57
2022-09-06T04:25:15.473Z,101330.36
2022-09-06T04:27:46.873Z,101330.19
2022-09-06T04:30:15.514Z,101329.70
2022-09-06T04:32:44.489Z,101332.45
2022-09-06T04:35:13.831Z,101331.06
2022-09-06T04:37:42.335Z,101337.94
2022-09-06T04:40:11.467Z,101339.02
2022-09-06T04:42:40.661Z,101338.21
2022-09-06T04:45:10.307Z,101336.34
2022-09-06T04:47:39.223Z,101339.75
2022-09-06T04:50:08.663Z,101341.81
2022-09-06T04:52:37.517Z,101339.45
2022-09-06T04:55:06.938Z,101338.45
2022-09-06T04:57:35.940Z,101338.77
2022-09-06T05:00:04.771Z,101339.13
2022-09-06T05:02:33.722Z,101344.66
2022-09-06T05:05:02.906Z,101339.22
2022-09-06T05:07:31.143Z,101337.73
2022-09-06T05:10:00.198Z,101342.85
2022-09-06T05:12:29.007Z,101340.92
2022-09-06T05:14:57.881Z,101338.67
2022-09-06T05:17:26.761Z,101338.32
2022-09-06T05:19:55.801Z,101335.41
2022-09-06T05:22:24.600Z,101339.08
2022-09-06T05:24:52.867Z,101337.91
2022-09-06T05:27:21.230Z,101340.67
2022-09-06T05:29:49.587Z,101343.52
2022-09-06T05:32:18.418Z,101343.62
2022-09-06T05:34:47.625Z,101341.32
2022-09-06T05:37:16.589Z,101335.30
2022-09-06T05:39:45.864Z,101334.23
2022-09-06T05:42:19.004Z,101338.54
2022-09-06T05:44:48.699Z,101336.26
2022-09-06T05:47:17.656Z,101337.12
2022-09-06T05:49:46.944Z,101335.24
2022-09-06T05:52:17.796Z,101334.63
2022-09-06T05:54:50.175Z,101339.74
2022-09-06T05:57:18.877Z,101343.48
2022-09-06T05:59:47.830Z,101344.91
2022-09-06T06:02:16.413Z,101337.03
2022-09-06T06:04:45.523Z,101327.63
2022-09-06T06:07:15.617Z,101322.02
2022-09-06T06:09:44.960Z,101317.55
2022-09-06T06:12:14.189Z,101315.04
2022-09-06T06:14:43.376Z,101310.53
2022-09-06T06:17:12.278Z,101311.63
2022-09-06T06:19:41.238Z,101306.77
2022-09-06T06:22:10.334Z,101307.58
2022-09-06T06:24:40.439Z,101310.05
2022-09-06T06:27:09.388Z,101317.13
2022-09-06T06:29:38.272Z,101320.02
2022-09-06T06:32:07.204Z,101324.14
2022-09-06T06:34:35.536Z,101323.73
2022-09-06T06:37:04.451Z,101328.58
2022-09-06T06:39:33.665Z,101324.30
2022-09-06T06:42:02.444Z,101322.33
2022-09-06T06:44:42.931Z,101321.32
2022-09-06T06:47:11.799Z,101322.88
2022-09-06T06:49:40.969Z,101322.71
2022-09-06T06:52:09.911Z,101329.31
2022-09-06T06:54:38.919Z,101333.27
2022-09-06T06:57:09.813Z,101328.30
2022-09-06T06:59:40.085Z,101329.66
2022-09-06T07:02:09.177Z,101332.48
2022-09-06T07:04:37.743Z,101337.02
2022-09-06T07:12:44.069Z,101333.81
2022-09-06T07:15:12.580Z,101331.79
2022-09-06T07:17:41.273Z,101336.13
2022-09-06T07:22:41.007Z,101334.40
2022-09-06T07:25:12.800Z,101330.76
2022-09-06T07:30:19.984Z,101330.48
2022-09-06T07:32:49.784Z,101331.75
2022-09-06T07:35:20.732Z,101325.94
2022-09-06T07:37:54.528Z,101329.57
2022-09-06T07:40:27.070Z,101324.95
2022-09-06T07:42:59.614Z,101330.75
2022-09-06T07:45:28.444Z,101327.00
2022-09-06T07:48:01.300Z,101324.83
2022-09-06T07:50:48.440Z,101322.48
2022-09-06T07:53:26.272Z,101323.84
2022-09-06T07:56:04.521Z,101324.39
2022-09-06T07:58:34.787Z,101313.27
2022-09-06T08:01:26.629Z,101315.48
2022-09-06T08:03:56.081Z,101312.09
2022-09-06T08:06:25.895Z,101306.79
2022-09-06T08:11:32.049Z,101305.73
2022-09-06T08:14:02.669Z,101302.22
2022-09-06T08:16:32.262Z,101302.98
2022-09-06T08:19:03.646Z,101301.61
2022-09-06T08:21:33.317Z,101301.18
2022-09-06T08:24:07.793Z,101301.73
2022-09-06T08:26:43.630Z,101302.08
2022-09-06T08:29:13.806Z,101308.08
2022-09-06T08:31:44.825Z,101302.20
2022-09-06T08:34:14.785Z,101307.20
2022-09-06T08:36:45.802Z,101298.64
2022-09-06T08:39:14.873Z,101302.80
2022-09-06T08:41:56.340Z,101298.76
2022-09-06T08:47:21.725Z,101302.09
2022-09-06T08:50:17.647Z,101297.06
2022-09-06T08:53:17.642Z,101299.79
2022-09-06T08:55:55.612Z,101295.20
2022-09-06T08:58:24.324Z,101296.50
2022-09-06T09:01:19.738Z,101293.10
2022-09-06T09:03:48.869Z,101292.70
2022-09-06T09:06:17.194Z,101289.91
2022-09-06T09:09:07.099Z,101285.64
2022-09-06T09:11:38.367Z,101282.49
2022-09-06T09:14:19.672Z,101276.66
2022-09-06T09:17:00.093Z,101279.95
2022-09-06T09:19:31.979Z,101275.69
2022-09-06T09:22:02.325Z,101277.64
2022-09-06T09:24:32.734Z,101273.09
2022-09-06T09:27:14.381Z,101273.20
2022-09-06T09:32:46.489Z,101272.42
2022-09-06T09:35:37.805Z,101269.14
2022-09-06T09:38:12.519Z,101266.70
2022-09-06T09:40:54.617Z,101263.41
2022-09-06T09:43:25.646Z,101265.58
2022-09-06T09:46:25.393Z,101259.67
2022-09-06T09:49:11.051Z,101260.48
2022-09-06T09:52:04.500Z,101253.83
2022-09-06T09:54:37.473Z,101247.76
2022-09-06T09:57:12.009Z,101247.00
2022-09-06T09:59:48.362Z,101244.64
2022-09-06T10:02:36.459Z,101247.28
2022-09-06T10:05:20.250Z,101237.39
2022-09-06T10:07:51.687Z,101234.67
2022-09-06T10:10:36.639Z,101226.28
2022-09-06T10:13:19.827Z,101223.90
2022-09-06T10:15:51.105Z,101225.48
2022-09-06T10:18:37.153Z,101221.38
2022-09-06T10:21:16.334Z,101226.34
2022-09-06T10:27:01.579Z,101226.39
2022-09-06T10:29:40.343Z,101223.29
2022-09-06T10:32:33.878Z,101221.59
2022-09-06T10:35:21.737Z,101215.80
2022-09-06T10:38:22.539Z,101216.24
2022-09-06T10:41:05.158Z,101214.05
2022-09-06T10:44:12.786Z,101213.41
2022-09-06T10:46:45.299Z,101204.58
2022-09-06T10:49:23.496Z,101203.46
2022-09-06T10:52:04.607Z,101202.45
2022-09-06T10:54:37.017Z,101198.13
2022-09-06T11:00:13.541Z,101190.17
2022-09-06T11:06:08.070Z,101185.90
2022-09-06T11:09:02.842Z,101183.80
2022-09-06T11:11:43.454Z,101182.46
2022-09-06T11:14:16.044Z,101178.67
2022-09-06T11:17:38.739Z,101174.67
2022-09-06T11:20:32.207Z,101172.35
2022-09-06T11:23:04.006Z,101171.51
2022-09-06T11:25:59.357Z,101172.46
2022-09-06T11:28:44.328Z,101169.55
2022-09-06T11:34:25.455Z,101166.98
2022-09-06T11:37:27.860Z,101159.42
2022-09-06T11:42:54.307Z,101156.13
2022-09-06T11:45:42.464Z,101151.69
2022-09-06T11:48:35.025Z,101145.30
2022-09-06T11:51:11.327Z,101141.90
2022-09-06T11:53:49.049Z,101138.92
2022-09-06T11:56:30.646Z,101137.51
2022-09-06T11:59:19.760Z,101135.55
2022-09-06T12:02:00.760Z,101135.40
2022-09-06T12:05:01.030Z,101133.09
2022-09-06T12:07:31.340Z,101128.61
2022-09-06T12:10:31.952Z,101124.51
2022-09-06T12:13:01.244Z,101121.97
2022-09-06T12:15:32.407Z,101121.14
2022-09-06T12:18:06.831Z,101120.63
2022-09-06T12:20:54.640Z,101119.59
2022-09-06T12:23:37.103Z,101114.73
2022-09-06T12:26:10.704Z,101104.39
2022-09-06T12:28:57.247Z,101102.67
2022-09-06T12:31:53.361Z,101101.82
2022-09-06T12:34:25.750Z,101097.39
2022-09-06T12:37:11.468Z,101096.77
2022-09-06T12:39:56.786Z,101096.35
2022-09-06T12:42:26.971Z,101091.58
2022-09-06T12:44:56.472Z,101093.54
2022-09-06T12:47:30.009Z,101093.46
2022-09-06T12:50:10.167Z,101088.73
2022-09-06T12:52:53.815Z,101089.98
2022-09-06T12:55:27.534Z,101086.98
2022-09-06T12:57:58.716Z,101085.02
2022-09-06T13:00:38.888Z,101086.86
2022-09-06T13:03:26.033Z,101083.79
2022-09-06T13:06:00.135Z,101079.21
2022-09-06T13:08:40.109Z,101076.23
2022-09-06T13:11:14.037Z,101074.73
2022-09-06T13:13:51.579Z,101070.18
2022-09-06T13:16:51.704Z,101066.68
2022-09-06T13:19:34.882Z,101064.63
2022-09-06T13:22:08.230Z,101066.27
2022-09-06T13:24:45.853Z,101067.23
2022-09-06T13:27:31.708Z,101066.61
2022-09-06T13:30:07.120Z,101060.85
2022-09-06T13:32:37.384Z,101059.38
2022-09-06T13:35:06.268Z,101064.25
2022-09-06T13:37:36.505Z,101062.01
2022-09-06T13:41:00.005Z,101064.88
2022-09-06T13:43:28.559Z,101061.27
2022-09-06T13:46:12.331Z,101055.92
2022-09-06T13:48:42.294Z,101053.31
2022-09-06T13:51:11.582Z,101049.72
2022-09-06T13:53:40.378Z,101051.33
2022-09-06T13:56:09.472Z,101050.16
2022-09-06T13:58:38.667Z,101047.42
2022-09-06T14:01:10.491Z,101047.59
2022-09-06T14:03:42.378Z,101047.33
2022-09-06T14:06:11.096Z,101049.25
2022-09-06T14:09:06.963Z,101044.41
2022-09-06T14:11:32.055Z,101039.69
2022-09-06T14:14:00.564Z,101031.85
2022-09-06T14:16:30.152Z,101034.77
2022-09-06T14:18:59.324Z,101040.36
2022-09-06T14:21:28.401Z,101036.33
2022-09-06T14:23:59.835Z,101033.58
2022-09-06T14:26:31.244Z,101033.02
2022-09-06T14:28:59.857Z,101029.10
2022-09-06T14:31:29.528Z,101029.85
2022-09-06T14:33:59.528Z,101026.17
2022-09-06T14:36:29.913Z,101022.60
2022-09-06T14:39:00.295Z,101015.98
2022-09-06T14:41:29.429Z,101015.66
2022-09-06T14:43:59.513Z,101017.01
2022-09-06T14:46:32.578Z,101012.59
2022-09-06T14:49:08.017Z,101011.20
2022-09-06T14:51:38.318Z,101008.09
2022-09-06T14:54:13.577Z,101006.41
2022-09-06T14:56:44.345Z,101009.57
2022-09-06T14:59:13.700Z,101004.43
2022-09-06T15:01:42.833Z,101001.92
2022-09-06T15:04:12.629Z,100997.73
2022-09-06T15:06:45.510Z,100996.11
2022-09-06T15:09:16.213Z,100994.92
2022-09-06T15:11:48.945Z,100993.40
2022-09-06T15:14:28.127Z,100987.20
2022-09-06T15:17:00.254Z,100986.03
2022-09-06T15:19:31.524Z,100984.13
2022-09-06T15:22:01.327Z,100982.91
2022-09-06T15:24:30.943Z,100981.56
2022-09-06T15:27:00.228Z,100978.56
2022-09-06T15:29:29.367Z,100978.35
2022-09-06T15:31:58.257Z,100977.45
2022-09-06T15:34:27.278Z,100975.64
2022-09-06T15:36:57.515Z,100971.36
2022-09-06T15:39:26.720Z,100967.30
2022-09-06T15:41:57.920Z,100962.52
2022-09-06T15:44:27.239Z,100959.21
2022-09-06T15:46:58.617Z,100955.54
2022-09-06T15:49:33.988Z,100952.55
2022-09-06T15:52:04.627Z,100951.07
2022-09-06T15:54:52.653Z,100950.71
2022-09-06T15:57:23.673Z,100953.03
2022-09-06T15:59:55.524Z,100950.87
2022-09-06T16:02:28.213Z,100951.02
2022-09-06T16:04:57.905Z,100951.02
2022-09-06T16:07:26.949Z,100954.98
2022-09-06T16:09:56.391Z,100955.49
2022-09-06T16:12:25.390Z,100955.13
2022-09-06T16:14:54.452Z,100955.84
2022-09-06T16:17:24.465Z,100952.20
2022-09-06T16:19:53.526Z,100949.43
2022-09-06T16:22:22.589Z,100951.91
2022-09-06T16:24:51.921Z,100948.66
2022-09-06T16:27:21.091Z,100950.23
2022-09-06T16:29:50.828Z,100940.14
2022-09-06T16:32:22.616Z,100937.44
2022-09-06T16:34:51.973Z,100933.55
2022-09-06T16:37:22.185Z,100938.45
2022-09-06T16:39:51.853Z,100940.75
2022-09-06T16:42:21.127Z,100940.44
2022-09-06T16:44:54.025Z,100936.33
2022-09-06T16:47:23.998Z,100936.97
2022-09-06T16:49:54.319Z,100934.61
2022-09-06T16:52:26.327Z,100934.49
2022-09-06T16:54:59.667Z,100931.31
2022-09-06T16:57:37.305Z,100932.66
2022-09-06T17:00:11.603Z,100933.71
2022-09-06T17:02:47.111Z,100931.91
2022-09-06T17:05:23.340Z,100933.48
2022-09-06T17:07:59.907Z,100935.10
2022-09-06T17:10:34.407Z,100936.95
2022-09-06T17:13:07.660Z,100930.92
2022-09-06T17:15:55.340Z,100938.99
2022-09-06T17:18:28.308Z,100935.95
2022-09-06T17:21:05.924Z,100937.85
2022-09-06T17:23:37.590Z,100935.05
2022-09-06T17:26:08.256Z,100939.84
2022-09-06T17:28:41.735Z,100940.03
2022-09-06T17:31:13.342Z,100937.41
2022-09-06T17:33:46.954Z,100939.98
2022-09-06T17:36:20.217Z,100941.44
2022-09-06T17:38:53.369Z,100947.27
2022-09-06T17:41:26.764Z,100951.58
2022-09-06T17:44:01.504Z,100955.44
2022-09-06T17:46:31.305Z,100954.70
2022-09-06T17:49:02.510Z,100958.67
2022-09-06T17:51:35.478Z,100954.64
2022-09-06T17:54:06.408Z,100955.67
2022-09-06T17:56:36.837Z,100963.13
2022-09-06T17:59:14.535Z,100962.15
2022-09-06T18:01:48.467Z,100961.64
2022-09-06T18:04:19.865Z,100964.87
2022-09-06T18:06:49.067Z,100966.17
2022-09-06T18:09:18.315Z,100968.30
2022-09-06T18:11:47.960Z,100964.41
2022-09-06T18:14:21.146Z,100962.53
2022-09-06T18:16:52.378Z,100968.24
2022-09-06T18:19:24.665Z,100963.38
2022-09-06T18:21:54.808Z,100964.34
2022-09-06T18:24:23.453Z,100962.75
2022-09-06T18:26:53.478Z,100970.48
2022-09-06T18:29:22.034Z,100972.48
2022-09-06T18:31:53.915Z,100968.09
2022-09-06T18:34:22.887Z,100967.85
2022-09-06T18:36:51.277Z,100970.89
2022-09-06T18:39:20.623Z,100975.84
2022-09-06T18:42:01.748Z,100974.79
2022-09-06T18:44:32.942Z,100976.66
2022-09-06T18:47:07.105Z,100983.70
2022-09-06T18:49:38.501Z,100985.38
2022-09-06T18:52:08.926Z,100978.23
2022-09-06T18:54:37.450Z,100978.89
2022-09-06T18:57:05.625Z,100979.05
2022-09-06T18:59:34.105Z,100978.96
2022-09-06T19:02:02.431Z,100975.10
2022-09-06T19:04:31.313Z,100975.75
2022-09-06T19:07:03.195Z,100975.64
2022-09-06T19:09:31.717Z,100973.14
2022-09-06T19:12:00.188Z,100972.79
2022-09-06T19:14:28.532Z,100969.43
2022-09-06T19:16:56.640Z,100970.19
2022-09-06T19:19:25.818Z,100969.86
2022-09-06T19:21:54.366Z,100968.94
2022-09-06T19:24:24.670Z,100969.40
2022-09-06T19:26:53.593Z,100967.63
2022-09-06T19:29:22.043Z,100969.71
2022-09-06T19:31:50.947Z,100961.84
2022-09-06T19:34:19.813Z,100963.39
2022-09-06T19:36:50.238Z,100960.52
2022-09-06T19:39:19.256Z,100964.52
2022-09-06T19:42:00.339Z,100958.75
2022-09-06T19:44:29.001Z,100956.57
2022-09-06T19:46:57.793Z,100954.10
2022-09-06T19:49:26.281Z,100956.21
2022-09-06T19:51:54.959Z,100954.64
2022-09-06T19:54:23.151Z,100954.04
2022-09-06T19:56:51.444Z,100952.91
2022-09-06T19:59:19.684Z,100950.63
2022-09-06T20:01:48.236Z,100945.48
2022-09-06T20:04:16.477Z,100944.35
2022-09-06T20:06:44.921Z,100941.52
2022-09-06T20:09:13.717Z,100943.27
2022-09-06T20:11:42.763Z,100947.30
2022-09-06T20:14:11.859Z,100947.84
2022-09-06T20:16:42.069Z,100946.11
2022-09-06T20:19:13.242Z,100949.38
2022-09-06T20:21:43.233Z,100944.25
2022-09-06T20:24:11.790Z,100940.84
2022-09-06T20:26:40.881Z,100941.12
2022-09-06T20:29:09.385Z,100942.50
2022-09-06T20:31:39.206Z,100939.67
2022-09-06T20:34:08.101Z,100940.88
2022-09-06T20:36:37.333Z,100936.99
2022-09-06T20:39:07.144Z,100935.95
2022-09-06T20:41:35.841Z,100940.73
2022-09-06T20:44:04.965Z,100938.60
2022-09-06T20:46:36.193Z,100940.23
2022-09-06T20:49:05.234Z,100939.01
2022-09-06T20:51:35.849Z,100938.64
2022-09-06T20:54:05.352Z,100934.75
2022-09-06T20:56:39.109Z,100931.34
2022-09-06T20:59:10.650Z,100934.77
2022-09-06T21:01:44.761Z,100934.68
2022-09-06T21:04:15.712Z,100935.83
2022-09-06T21:06:45.970Z,100930.34
2022-09-06T21:09:15.139Z,100934.08
2022-09-06T21:11:45.419Z,100934.52
2022-09-06T21:14:14.281Z,100931.84
2022-09-06T21:16:42.774Z,100929.33
2022-09-06T21:19:12.175Z,100931.09
2022-09-06T21:21:41.514Z,100933.02
2022-09-06T21:24:10.997Z,100933.39
2022-09-06T21:26:39.752Z,100935.73
2022-09-06T21:29:08.647Z,100937.02
2022-09-06T21:31:37.907Z,100933.99
2022-09-06T21:34:16.204Z,100936.01
2022-09-06T21:36:46.504Z,100933.33
2022-09-06T21:39:15.661Z,100933.07
2022-09-06T21:41:44.885Z,100933.88
2022-09-06T21:44:14.015Z,100938.19
2022-09-06T21:46:43.500Z,100929.27
2022-09-06T21:49:14.226Z,100932.58
2022-09-06T21:51:43.386Z,100932.11
2022-09-06T21:54:12.743Z,100932.19
2022-09-06T21:56:41.746Z,100932.59
2022-09-06T21:59:11.332Z,100935.86
2022-09-06T22:01:44.895Z,100937.45
2022-09-06T22:04:14.602Z,100933.20
2022-09-06T22:06:43.552Z,100934.73
2022-09-06T22:09:13.717Z,100933.98
2022-09-06T22:11:44.738Z,100934.98
2022-09-06T22:14:15.905Z,100935.61
2022-09-06T22:16:45.127Z,100929.25
2022-09-06T22:19:14.312Z,100934.69
2022-09-06T22:21:42.903Z,100932.84
2022-09-06T22:24:13.401Z,100930.65
2022-09-06T22:26:42.539Z,100933.58
2022-09-06T22:29:13.921Z,100932.97
2022-09-06T22:31:43.410Z,100932.57
2022-09-06T22:34:12.588Z,100930.30
2022-09-06T22:36:41.575Z,100928.39
2022-09-06T22:39:10.393Z,100932.91
2022-09-06T22:41:39.415Z,100930.31
2022-09-06T22:44:08.650Z,100927.98
2022-09-06T22:46:38.763Z,100926.67
2022-09-06T22:49:08.877Z,100926.38
2022-09-06T22:51:38.080Z,100920.15
2022-09-06T22:54:07.423Z,100921.37
2022-09-06T22:56:37.034Z,100920.34
2022-09-06T22:59:06.484Z,100917.60
